Time;durP1;ratioP1;P1;durP2;ratioP2;P2;SDS_P1;SDS_P2;PMS_P1;PMS_P2;Temp;Humidity;BMP_temperature;BMP_pressure;BME280_temperature;BME280_humidity;BME280_pressure;Samples;Min_cycle;Max_cycle;Signal;HPM_P1;HPM_P2
2022/11/11 00:00:22;;;;;;;4.30;3.17;;;15.90;59.40;;;;;;5046342;28;45281;-78
2022/11/11 00:02:50;;;;;;;3.50;2.47;;;15.90;59.50;;;;;;5046151;28;45221;-78
2022/11/11 00:05:16;;;;;;;2.67;2.40;;;15.80;59.60;;;;;;5046522;28;45222;-78
2022/11/11 00:07:45;;;;;;;2.58;2.00;;;15.80;59.60;;;;;;5046470;28;45461;-77
2022/11/11 00:10:12;;;;;;;2.80;2.03;;;15.70;59.60;;;;;;5045978;28;45326;-78
2022/11/11 00:12:40;;;;;;;4.32;2.80;;;15.70;59.80;;;;;;5046179;28;45218;-77
2022/11/11 00:15:08;;;;;;;3.22;2.60;;;15.70;59.80;;;;;;5046456;28;45270;-77
2022/11/11 00:25:52;;;;;;;2.60;2.13;;;15.50;59.90;;;;;;5043649;28;45297;-77
2022/11/11 00:28:19;;;;;;;5.10;2.40;;;15.50;60.00;;;;;;5046325;28;45202;-77
2022/11/11 00:30:46;;;;;;;2.60;2.15;;;15.50;60.10;;;;;;5045802;28;46531;-77
2022/11/11 00:33:13;;;;;;;5.00;2.40;;;15.40;60.10;;;;;;5045843;28;45398;-77
2022/11/11 00:35:55;;;;;;;2.65;2.22;;;15.40;60.20;;;;;;5046084;28;45312;-77
2022/11/11 00:41:07;;;;;;;3.45;2.20;;;15.40;60.20;;;;;;5043199;28;45809;-77
2022/11/11 00:43:34;;;;;;;3.67;2.13;;;15.30;60.20;;;;;;5045734;28;45310;-77
2022/11/11 00:51:25;;;;;;;3.40;2.35;;;15.30;60.20;;;;;;5046582;28;45210;-77
2022/11/11 00:53:54;;;;;;;3.83;2.33;;;15.20;60.30;;;;;;5049141;28;45290;-77
2022/11/11 00:56:21;;;;;;;1.90;1.80;;;15.20;60.40;;;;;;5049083;28;45336;-78
2022/11/11 00:58:48;;;;;;;2.80;2.03;;;15.20;60.30;;;;;;5049216;28;45274;-77
2022/11/11 01:01:15;;;;;;;2.88;2.28;;;15.20;60.30;;;;;;5048856;28;45194;-78
2022/11/11 01:03:42;;;;;;;3.00;2.00;;;15.10;60.30;;;;;;5048972;28;45203;-78
2022/11/11 01:06:09;;;;;;;3.30;2.30;;;15.10;60.40;;;;;;5049101;28;45416;-77
2022/11/11 01:08:37;;;;;;;2.85;2.10;;;15.10;60.40;;;;;;5049018;28;45460;-77
2022/11/11 01:11:12;;;;;;;2.00;1.80;;;15.10;60.40;;;;;;5049154;28;47123;-77
2022/11/11 01:13:39;;;;;;;3.35;1.98;;;15.10;60.40;;;;;;5048845;28;45199;-77
2022/11/11 01:16:08;;;;;;;3.20;2.20;;;15.00;60.40;;;;;;5048888;28;45199;-77
2022/11/11 01:18:35;;;;;;;2.70;2.10;;;15.00;60.20;;;;;;5048865;28;45384;-75
2022/11/11 01:21:03;;;;;;;2.70;2.13;;;15.00;60.20;;;;;;5047852;28;45433;-77
2022/11/11 01:23:31;;;;;;;2.30;1.90;;;15.00;60.20;;;;;;5048444;28;45195;-77
2022/11/11 01:26:03;;;;;;;3.28;2.20;;;15.00;60.20;;;;;;5048865;28;45284;-77
2022/11/11 01:28:31;;;;;;;2.70;2.10;;;15.00;60.20;;;;;;5048850;28;45170;-77
2022/11/11 01:31:01;;;;;;;2.60;2.15;;;15.00;60.20;;;;;;5048484;28;46392;-78
2022/11/11 01:33:28;;;;;;;2.28;2.00;;;14.90;60.10;;;;;;5048612;28;45214;-77
2022/11/11 01:35:55;;;;;;;3.05;2.17;;;14.90;60.20;;;;;;5048621;28;45218;-77
2022/11/11 01:38:22;;;;;;;2.58;2.00;;;14.90;60.30;;;;;;5048720;28;45177;-77
2022/11/11 01:40:49;;;;;;;2.60;2.10;;;14.90;60.60;;;;;;5048316;28;47335;-77
2022/11/11 01:43:21;;;;;;;4.13;2.30;;;14.80;60.40;;;;;;5048166;28;45362;-77
2022/11/11 01:45:56;;;;;;;3.08;2.00;;;14.80;60.30;;;;;;5048327;28;45151;-77
2022/11/11 01:51:19;;;;;;;3.47;2.20;;;14.70;60.50;;;;;;5045644;28;45258;-77
2022/11/11 01:53:47;;;;;;;3.20;2.28;;;14.80;60.70;;;;;;5048106;28;45431;-77
2022/11/11 01:56:14;;;;;;;2.85;2.10;;;14.80;60.50;;;;;;5048471;28;45259;-77
2022/11/11 01:58:42;;;;;;;2.60;1.95;;;14.80;60.30;;;;;;5048530;28;45192;-77
2022/11/11 02:01:10;;;;;;;3.05;1.67;;;14.80;60.20;;;;;;5048011;28;46679;-77
2022/11/11 02:03:40;;;;;;;3.30;2.10;;;14.80;60.40;;;;;;5047963;28;45233;-77
2022/11/11 02:06:06;;;;;;;2.35;2.15;;;14.70;60.40;;;;;;5048188;28;45180;-77
2022/11/11 02:08:35;;;;;;;2.13;2.03;;;14.70;60.30;;;;;;5048337;28;45255;-76
2022/11/11 02:11:04;;;;;;;2.05;1.85;;;14.70;60.30;;;;;;5047750;28;46501;-77
2022/11/11 02:16:17;;;;;;;3.10;2.10;;;14.70;60.30;;;;;;5045397;28;45202;-77
2022/11/11 02:18:44;;;;;;;3.33;2.25;;;14.70;60.20;;;;;;5048027;28;45550;-77
2022/11/11 02:21:13;;;;;;;2.20;1.90;;;14.70;60.20;;;;;;5047669;28;45355;-77
2022/11/11 02:23:42;;;;;;;3.28;2.47;;;14.70;60.20;;;;;;5047589;28;45174;-77
2022/11/11 02:26:10;;;;;;;2.70;2.10;;;14.70;60.40;;;;;;5047947;28;45415;-77
2022/11/11 02:28:37;;;;;;;3.03;1.95;;;14.70;60.30;;;;;;5047133;28;45250;-77
2022/11/11 02:31:04;;;;;;;3.53;1.92;;;14.60;60.10;;;;;;5047378;28;45279;-76
2022/11/11 02:33:31;;;;;;;3.05;1.77;;;14.60;60.20;;;;;;5047598;28;45199;-77
2022/11/11 02:35:58;;;;;;;2.40;1.92;;;14.60;60.30;;;;;;5047715;28;45240;-77
2022/11/11 02:38:25;;;;;;;1.77;1.67;;;14.60;60.20;;;;;;5047657;28;45285;-77
2022/11/11 02:43:38;;;;;;;2.50;1.58;;;14.60;60.30;;;;;;5047654;28;45277;-77
2022/11/11 02:46:05;;;;;;;2.47;1.73;;;14.60;60.20;;;;;;5047387;28;45194;-76
2022/11/11 02:48:32;;;;;;;3.85;2.03;;;14.50;60.20;;;;;;5047535;28;45224;-77
2022/11/11 02:50:59;;;;;;;2.38;1.65;;;14.50;60.20;;;;;;5047249;28;47329;-77
2022/11/11 02:53:26;;;;;;;2.20;1.67;;;14.50;60.20;;;;;;5047168;28;45405;-77
2022/11/11 02:55:54;;;;;;;2.38;1.83;;;14.40;60.30;;;;;;5047337;28;45246;-77
2022/11/11 02:58:20;;;;;;;2.80;1.73;;;14.40;60.40;;;;;;5047437;28;45179;-77
2022/11/11 03:00:49;;;;;;;3.60;1.90;;;14.40;60.40;;;;;;5046976;28;46417;-77
2022/11/11 03:03:15;;;;;;;2.00;1.52;;;14.40;60.40;;;;;;5047006;28;45408;-77
2022/11/11 03:05:42;;;;;;;2.78;1.80;;;14.40;60.30;;;;;;5047235;28;45401;-77
2022/11/11 03:08:09;;;;;;;2.70;1.48;;;14.40;60.30;;;;;;5047483;28;45250;-77
2022/11/11 03:10:36;;;;;;;2.83;1.77;;;14.40;60.10;;;;;;5046451;28;45536;-77
2022/11/11 03:13:03;;;;;;;1.80;1.65;;;14.40;60.20;;;;;;5046897;28;45131;-76
2022/11/11 03:15:30;;;;;;;2.85;1.65;;;14.40;60.10;;;;;;5047000;28;45282;-77
2022/11/11 03:17:57;;;;;;;2.55;1.70;;;14.30;60.90;;;;;;5046335;28;45404;-77
2022/11/11 03:23:10;;;;;;;1.85;1.35;;;14.30;60.20;;;;;;5043334;28;45325;-77
2022/11/11 03:25:37;;;;;;;2.72;1.48;;;14.30;60.20;;;;;;5046761;28;45270;-78
2022/11/11 03:28:04;;;;;;;1.92;1.50;;;14.20;61.00;;;;;;5047060;28;45129;-77
2022/11/11 03:30:31;;;;;;;2.28;1.50;;;14.20;60.20;;;;;;5046491;28;46498;-77
2022/11/11 03:32:59;;;;;;;1.98;1.63;;;14.20;60.20;;;;;;5046566;28;45319;-77
2022/11/11 03:35:26;;;;;;;3.40;1.38;;;14.20;60.20;;;;;;5046651;28;45219;-77
2022/11/11 03:40:38;;;;;;;1.60;1.50;;;14.20;60.20;;;;;;5046677;28;45806;-77
2022/11/11 03:43:04;;;;;;;1.67;1.25;;;14.20;60.20;;;;;;5046290;28;45439;-76
2022/11/11 03:45:31;;;;;;;2.33;1.85;;;14.20;60.40;;;;;;5046423;28;45357;-77
2022/11/11 03:48:01;;;;;;;2.53;1.30;;;14.20;60.40;;;;;;5046734;28;45439;-77
2022/11/11 03:50:27;;;;;;;1.70;1.60;;;14.20;60.30;;;;;;5046363;28;45221;-77
2022/11/11 03:52:54;;;;;;;1.73;1.27;;;14.20;60.20;;;;;;5046457;28;45488;-77
2022/11/11 03:55:21;;;;;;;2.35;1.52;;;14.10;60.10;;;;;;5046527;28;45354;-77
2022/11/11 03:57:48;;;;;;;2.00;1.80;;;14.10;60.00;;;;;;5046574;28;45342;-76
2022/11/11 04:00:16;;;;;;;2.47;1.65;;;14.10;60.20;;;;;;5046175;28;46414;-77
2022/11/11 04:10:59;;;;;;;3.05;1.98;;;14.00;60.10;;;;;;5046443;28;45764;-77
2022/11/11 04:16:10;;;;;;;3.65;1.70;;;14.00;60.10;;;;;;5043690;28;45252;-76
2022/11/11 04:26:48;;;;;;;3.00;1.48;;;14.00;60.10;;;;;;5048448;28;45373;-77
2022/11/11 04:29:29;;;;;;;1.50;1.27;;;14.00;60.10;;;;;;5049796;28;45330;-76
2022/11/11 04:34:42;;;;;;;1.85;1.67;;;14.00;60.10;;;;;;5046993;28;45195;-76
2022/11/11 04:37:10;;;;;;;1.65;1.52;;;13.90;60.20;;;;;;5049315;28;45226;-76
2022/11/11 04:42:22;;;;;;;2.15;1.77;;;13.90;60.00;;;;;;5017623;28;45298;-77
2022/11/11 04:47:33;;;;;;;2.22;1.45;;;13.80;60.20;;;;;;5049497;28;45290;-77
2022/11/11 04:50:00;;;;;;;3.13;1.70;;;13.80;60.20;;;;;;5049747;28;45329;-77
2022/11/11 04:52:28;;;;;;;1.77;1.35;;;13.80;60.10;;;;;;5049371;28;46425;-77
2022/11/11 04:57:41;;;;;;;1.40;1.30;;;13.80;60.20;;;;;;5049578;28;45297;-76
2022/11/11 05:00:10;;;;;;;1.50;1.40;;;13.80;60.20;;;;;;5049204;28;45336;-76
2022/11/11 05:05:21;;;;;;;1.40;1.30;;;13.80;60.80;;;;;;5049108;28;45343;-76
2022/11/11 05:10:33;;;;;;;1.42;1.33;;;13.70;60.10;;;;;;5049621;28;45266;-76
2022/11/11 05:21:22;;;;;;;1.67;1.40;;;13.70;60.10;;;;;;5046653;28;45336;-77
2022/11/11 05:26:34;;;;;;;2.50;1.58;;;13.70;60.10;;;;;;5046204;28;45258;-76
2022/11/11 05:29:01;;;;;;;1.98;1.40;;;13.60;60.20;;;;;;5048767;28;45423;-77
2022/11/11 05:31:28;;;;;;;1.92;1.40;;;13.60;60.30;;;;;;5048699;28;45458;-77
2022/11/11 05:33:55;;;;;;;1.83;1.60;;;13.60;60.20;;;;;;5048321;28;47338;-77
2022/11/11 05:36:23;;;;;;;1.58;1.35;;;13.60;61.10;;;;;;5048400;28;45209;-77
2022/11/11 05:38:51;;;;;;;1.70;1.40;;;13.60;60.30;;;;;;5048333;28;45405;-77
2022/11/11 05:41:18;;;;;;;1.33;1.20;;;13.60;60.30;;;;;;5048732;28;45407;-77
2022/11/11 05:43:44;;;;;;;1.58;1.30;;;13.60;60.20;;;;;;5048234;28;45497;-76
2022/11/11 05:46:11;;;;;;;2.85;1.83;;;13.60;60.20;;;;;;5047984;28;45263;-76
2022/11/11 05:49:13;;;;;;;3.22;1.52;;;13.60;60.10;;;;;;5047616;28;45270;-76
2022/11/11 05:51:29;;;;;;;1.55;1.42;;;13.60;60.30;;;;;;5048452;28;45282;-78
2022/11/11 05:54:00;;;;;;;2.67;1.58;;;13.50;60.10;;;;;;5047532;28;45610;-77
2022/11/11 05:56:26;;;;;;;2.25;1.40;;;13.50;60.30;;;;;;5047535;28;45336;-77
2022/11/11 05:58:53;;;;;;;1.88;1.45;;;13.50;60.20;;;;;;5048415;28;45289;-77
2022/11/11 06:01:20;;;;;;;1.50;1.40;;;13.50;60.30;;;;;;5048304;28;45484;-77
2022/11/11 06:03:47;;;;;;;1.60;1.50;;;13.50;60.40;;;;;;5047903;28;45207;-77
2022/11/11 06:06:14;;;;;;;1.77;1.10;;;13.50;60.40;;;;;;5047863;28;45229;-77
2022/11/11 06:08:41;;;;;;;1.90;1.40;;;13.50;61.10;;;;;;5048140;28;45273;-77
2022/11/11 06:11:09;;;;;;;1.40;1.30;;;13.50;60.40;;;;;;5048295;28;45338;-77
2022/11/11 06:13:36;;;;;;;1.55;1.20;;;13.50;60.40;;;;;;5047882;28;45183;-76
2022/11/11 06:16:03;;;;;;;1.50;1.33;;;13.50;60.40;;;;;;5047922;28;45194;-77
2022/11/11 06:18:30;;;;;;;2.30;1.35;;;13.50;60.40;;;;;;5048030;28;45352;-77
2022/11/11 06:20:57;;;;;;;1.88;1.10;;;13.50;60.40;;;;;;5047985;28;45412;-77
2022/11/11 06:23:25;;;;;;;2.17;1.40;;;13.50;60.30;;;;;;5047684;28;45382;-77
2022/11/11 06:28:37;;;;;;;1.42;1.20;;;13.40;60.40;;;;;;5045458;28;45223;-77
2022/11/11 06:31:06;;;;;;;1.17;1.08;;;13.40;60.30;;;;;;5048141;28;45465;-77
2022/11/11 06:33:33;;;;;;;1.75;1.27;;;13.40;60.40;;;;;;5047634;28;46575;-77
2022/11/11 06:36:00;;;;;;;1.60;1.48;;;13.40;60.40;;;;;;5047676;28;45211;-77
2022/11/11 06:38:27;;;;;;;1.85;1.20;;;13.40;60.40;;;;;;5047622;28;45293;-77
2022/11/11 06:40:54;;;;;;;2.22;1.35;;;13.40;61.10;;;;;;5048101;28;45491;-77
2022/11/11 06:43:21;;;;;;;2.25;1.23;;;13.40;60.40;;;;;;5046824;28;46721;-76
2022/11/11 06:45:51;;;;;;;1.75;1.10;;;13.40;60.40;;;;;;5045820;28;45338;-77
2022/11/11 06:48:18;;;;;;;1.00;1.00;;;13.40;60.50;;;;;;5047421;28;45141;-77
2022/11/11 06:50:45;;;;;;;1.63;1.30;;;13.40;60.50;;;;;;5047510;28;45262;-77
2022/11/11 06:53:13;;;;;;;1.48;1.20;;;13.40;60.50;;;;;;5047214;28;46402;-77
2022/11/11 06:55:40;;;;;;;2.55;1.23;;;13.40;60.50;;;;;;5047235;28;45265;-77
2022/11/11 06:58:07;;;;;;;3.03;1.55;;;13.40;61.20;;;;;;5047455;28;45186;-76
2022/11/11 07:00:34;;;;;;;1.70;1.30;;;13.40;61.20;;;;;;5047506;28;45404;-77
2022/11/11 07:03:02;;;;;;;2.63;1.40;;;13.40;60.40;;;;;;5047108;28;45556;-77
2022/11/11 07:05:29;;;;;;;1.58;1.30;;;13.40;60.40;;;;;;5046912;28;45330;-77
2022/11/11 07:07:56;;;;;;;1.58;1.33;;;13.40;60.30;;;;;;5047088;28;45196;-77
2022/11/11 07:10:23;;;;;;;2.15;1.30;;;13.30;60.30;;;;;;5047275;28;45178;-77
2022/11/11 07:12:50;;;;;;;1.67;1.30;;;13.30;60.30;;;;;;5046815;28;45271;-76
2022/11/11 07:15:17;;;;;;;1.27;1.20;;;13.30;60.30;;;;;;5046852;28;45328;-76
2022/11/11 07:17:44;;;;;;;1.35;1.10;;;13.30;60.30;;;;;;5047103;28;45296;-76
2022/11/11 07:20:12;;;;;;;1.55;1.30;;;13.30;60.30;;;;;;5047249;28;45365;-77
2022/11/11 07:22:39;;;;;;;2.13;1.50;;;13.30;60.30;;;;;;5046800;28;46405;-76
2022/11/11 07:25:07;;;;;;;1.48;1.38;;;13.30;60.40;;;;;;5046635;28;45432;-76
2022/11/11 07:27:37;;;;;;;2.03;1.40;;;13.30;60.40;;;;;;5046509;28;45341;-77
2022/11/11 07:30:04;;;;;;;1.90;1.60;;;13.30;60.40;;;;;;5046300;28;45210;-77
2022/11/11 07:32:31;;;;;;;1.50;1.38;;;13.30;60.40;;;;;;5046627;28;45316;-76
2022/11/11 07:34:58;;;;;;;1.83;1.15;;;13.30;60.30;;;;;;5046889;28;45259;-77
2022/11/11 07:37:27;;;;;;;1.83;1.30;;;13.30;60.30;;;;;;5046981;28;45285;-78
2022/11/11 07:39:54;;;;;;;1.63;1.20;;;13.30;60.40;;;;;;5046757;28;45467;-77
2022/11/11 07:42:21;;;;;;;4.13;1.20;;;13.30;60.30;;;;;;5046596;28;46489;-77
2022/11/11 07:44:48;;;;;;;1.77;1.45;;;13.20;60.30;;;;;;5046604;28;45336;-77
2022/11/11 07:47:15;;;;;;;2.05;1.27;;;13.30;60.40;;;;;;5046780;28;45413;-77
2022/11/11 07:49:41;;;;;;;1.20;1.10;;;13.20;61.10;;;;;;5046831;28;45260;-77
2022/11/11 07:52:08;;;;;;;1.80;1.50;;;13.20;60.40;;;;;;5046284;28;46373;-77
2022/11/11 07:54:36;;;;;;;2.78;1.50;;;13.20;60.40;;;;;;5046517;28;45190;-77
2022/11/11 07:57:03;;;;;;;1.55;1.27;;;13.20;61.10;;;;;;5049970;28;45488;-77
2022/11/11 07:59:30;;;;;;;1.85;1.15;;;13.20;60.40;;;;;;5050340;28;45333;-78
2022/11/11 08:01:58;;;;;;;1.88;1.50;;;13.20;60.40;;;;;;5049747;28;46741;-77
2022/11/11 08:04:24;;;;;;;1.77;1.40;;;13.20;60.40;;;;;;5049659;28;45179;-77
2022/11/11 08:06:51;;;;;;;1.42;1.33;;;13.20;60.40;;;;;;5050165;28;45274;-77
2022/11/11 08:09:18;;;;;;;1.60;1.48;;;13.20;60.40;;;;;;5050193;28;45298;-77
2022/11/11 08:14:31;;;;;;;4.35;1.50;;;13.30;60.40;;;;;;5036746;28;45385;-76
2022/11/11 08:16:57;;;;;;;4.85;2.15;;;13.30;62.70;;;;;;5034348;28;45231;-76
2022/11/11 08:19:24;;;;;;;11.13;8.05;;;13.30;62.70;;;;;;5030147;28;45376;-77
2022/11/11 08:21:52;;;;;;;19.88;15.48;;;13.40;63.10;;;;;;5029897;28;45540;-75
2022/11/11 08:24:19;;;;;;;22.92;15.00;;;13.40;62.40;;;;;;5045153;28;45358;-71
2022/11/11 08:26:47;;;;;;;12.05;9.13;;;13.50;62.70;;;;;;5049773;28;44716;-76
2022/11/11 08:29:14;;;;;;;10.07;8.10;;;13.60;62.70;;;;;;5050140;28;45468;-77
2022/11/11 08:31:41;;;;;;;10.38;5.65;;;13.70;61.90;;;;;;5049535;28;46406;-77
2022/11/11 08:34:09;;;;;;;9.80;4.40;;;13.70;63.10;;;;;;5049533;28;45349;-79
2022/11/11 08:36:36;;;;;;;6.03;5.53;;;13.80;62.20;;;;;;5050055;28;45319;-73
2022/11/11 08:39:02;;;;;;;5.68;3.45;;;13.80;62.30;;;;;;5049721;28;45353;-73
2022/11/11 08:41:30;;;;;;;4.53;3.70;;;13.90;61.30;;;;;;5049276;28;46710;-75
2022/11/11 08:43:59;;;;;;;5.47;3.53;;;14.00;61.70;;;;;;5049455;28;45290;-77
2022/11/11 08:46:26;;;;;;;5.05;3.75;;;14.00;62.10;;;;;;5049356;28;45301;-76
2022/11/11 08:48:53;;;;;;;4.07;3.00;;;14.20;61.80;;;;;;5049467;28;45210;-74
2022/11/11 08:51:20;;;;;;;3.50;3.10;;;14.20;60.20;;;;;;5049339;28;46541;-75
2022/11/11 08:53:47;;;;;;;3.53;2.70;;;14.30;60.60;;;;;;5049123;28;45230;-74
2022/11/11 08:56:14;;;;;;;3.20;2.90;;;14.30;59.90;;;;;;5049552;28;45384;-73
2022/11/11 08:58:41;;;;;;;2.90;2.65;;;14.40;60.30;;;;;;5049488;28;45279;-76
2022/11/11 09:01:12;;;;;;;5.38;2.88;;;14.40;60.10;;;;;;5049393;28;47198;-77
2022/11/11 09:03:42;;;;;;;4.07;2.70;;;14.40;60.30;;;;;;5041376;28;45341;-77
2022/11/11 09:06:09;;;;;;;17.35;12.52;;;14.40;60.10;;;;;;5028657;28;45257;-78
2022/11/11 09:08:36;;;;;;;27.50;20.50;;;14.40;60.20;;;;;;5033652;28;45261;-74
2022/11/11 09:11:03;;;;;;;26.60;17.52;;;14.40;60.50;;;;;;5036047;28;45431;-77
2022/11/11 09:13:30;;;;;;;17.83;12.70;;;14.40;61.00;;;;;;5048882;28;45324;-78
2022/11/11 09:15:58;;;;;;;13.95;9.70;;;14.40;60.90;;;;;;5049813;28;45423;-77
2022/11/11 09:18:26;;;;;;;13.10;8.32;;;14.50;60.40;;;;;;5048172;28;45177;-75
2022/11/11 09:20:53;;;;;;;12.27;8.40;;;14.60;60.00;;;;;;5041521;28;47309;-76
2022/11/11 09:23:20;;;;;;;8.30;6.00;;;14.60;59.70;;;;;;5048544;28;45353;-77
2022/11/11 09:25:47;;;;;;;6.75;5.22;;;14.60;59.80;;;;;;5049797;28;45337;-76
2022/11/11 09:28:14;;;;;;;12.02;6.13;;;14.70;59.60;;;;;;5047514;28;45428;-74
2022/11/11 09:30:41;;;;;;;7.35;5.50;;;14.70;59.50;;;;;;5048262;28;45479;-76
2022/11/11 09:33:08;;;;;;;7.47;5.68;;;14.80;59.50;;;;;;5048766;28;45190;-78
2022/11/11 09:35:37;;;;;;;7.97;5.63;;;14.90;59.40;;;;;;5048735;28;45309;-75
2022/11/11 09:38:03;;;;;;;9.80;5.07;;;14.90;59.40;;;;;;5047487;28;45448;-74
2022/11/11 09:40:38;;;;;;;9.77;5.63;;;14.90;59.10;;;;;;5041685;28;46337;-74
2022/11/11 09:43:09;;;;;;;7.80;5.07;;;15.00;59.20;;;;;;5048208;28;45211;-73
2022/11/11 09:45:41;;;;;;;7.53;5.00;;;15.00;59.10;;;;;;5046282;28;45431;-76
2022/11/11 09:48:26;;;;;;;6.40;4.65;;;15.10;59.40;;;;;;5041075;28;45500;-72
2022/11/11 09:50:55;;;;;;;7.70;4.95;;;15.10;59.30;;;;;;5048165;28;46595;-74
2022/11/11 09:53:24;;;;;;;10.05;4.85;;;15.10;59.30;;;;;;5048169;28;45511;-78
2022/11/11 09:55:54;;;;;;;6.32;4.75;;;15.20;59.10;;;;;;5048682;28;45225;-77
2022/11/11 09:58:23;;;;;;;9.73;4.65;;;15.20;59.10;;;;;;5047299;28;46143;-77
2022/11/11 10:00:54;;;;;;;19.00;9.18;;;15.20;59.00;;;;;;5048003;28;46493;-77
2022/11/11 10:03:22;;;;;;;9.48;5.78;;;15.30;59.30;;;;;;5047747;28;45306;-77
2022/11/11 10:05:51;;;;;;;10.73;5.60;;;15.30;58.90;;;;;;5048484;28;45155;-76
2022/11/11 10:08:22;;;;;;;8.50;5.55;;;15.30;58.80;;;;;;5048267;28;45242;-73
2022/11/11 10:10:49;;;;;;;13.15;4.88;;;15.40;59.40;;;;;;5048217;28;45310;-78
2022/11/11 10:13:19;;;;;;;9.13;5.03;;;15.50;59.30;;;;;;5048021;28;45198;-72
2022/11/11 10:15:53;;;;;;;10.30;5.03;;;15.60;59.10;;;;;;5048055;28;45330;-73
2022/11/11 10:18:34;;;;;;;10.70;4.90;;;15.60;58.70;;;;;;5047780;28;45548;-76
2022/11/11 10:21:00;;;;;;;7.72;5.13;;;15.70;59.10;;;;;;5046747;28;46379;-75
2022/11/11 10:23:30;;;;;;;9.65;5.57;;;15.70;58.70;;;;;;5040829;28;45187;-77
2022/11/11 10:25:59;;;;;;;11.80;5.85;;;15.80;58.40;;;;;;5027764;28;45361;-75
2022/11/11 10:28:29;;;;;;;9.57;5.40;;;15.80;58.50;;;;;;5028005;28;45317;-72
2022/11/11 10:30:56;;;;;;;12.82;4.97;;;15.80;58.00;;;;;;5029446;28;45324;-75
2022/11/11 10:33:25;;;;;;;10.48;5.07;;;15.90;57.90;;;;;;5047308;28;45400;-74
2022/11/11 10:35:52;;;;;;;8.65;4.60;;;15.90;58.20;;;;;;5047591;28;45262;-76
2022/11/11 10:38:25;;;;;;;10.80;5.70;;;16.00;58.30;;;;;;5047979;28;45195;-75
2022/11/11 10:40:53;;;;;;;11.52;5.32;;;16.10;57.90;;;;;;5045632;28;46553;-73
2022/11/11 10:43:22;;;;;;;13.32;5.15;;;16.10;57.90;;;;;;5047136;28;45365;-75
2022/11/11 10:45:53;;;;;;;17.52;5.28;;;16.10;57.90;;;;;;5047306;28;45296;-78
2022/11/11 10:48:22;;;;;;;13.75;5.80;;;16.20;58.00;;;;;;5047796;28;45401;-78
2022/11/11 10:50:50;;;;;;;10.90;4.70;;;16.20;58.10;;;;;;5045636;28;45478;-75
2022/11/11 10:53:18;;;;;;;9.90;4.13;;;16.20;57.70;;;;;;5047118;28;45259;-76
2022/11/11 10:55:47;;;;;;;9.70;4.95;;;16.30;57.70;;;;;;5045173;28;45343;-73
2022/11/11 10:58:17;;;;;;;10.95;4.65;;;16.30;58.00;;;;;;5047886;28;45234;-78
2022/11/11 11:00:44;;;;;;;10.27;4.72;;;16.40;57.40;;;;;;5045786;28;47578;-78
2022/11/11 11:03:13;;;;;;;8.23;4.50;;;16.40;57.20;;;;;;5045625;28;45427;-77
2022/11/11 11:05:42;;;;;;;8.02;4.53;;;16.40;57.10;;;;;;5026088;28;45195;-79
2022/11/11 11:08:11;;;;;;;11.65;4.53;;;16.50;57.20;;;;;;5027011;28;45179;-78
2022/11/11 11:10:39;;;;;;;6.70;4.35;;;16.50;57.10;;;;;;5037257;28;45389;-76
2022/11/11 11:13:07;;;;;;;7.88;4.22;;;16.50;57.20;;;;;;5046155;28;45197;-74
2022/11/11 11:15:37;;;;;;;8.82;4.18;;;16.50;57.30;;;;;;5047277;28;45202;-80
2022/11/11 11:18:06;;;;;;;7.00;4.25;;;16.50;57.20;;;;;;5047291;28;45455;-76
2022/11/11 11:20:33;;;;;;;10.63;3.95;;;16.50;57.30;;;;;;5046835;28;48835;-76
2022/11/11 11:23:01;;;;;;;9.00;4.15;;;16.50;57.30;;;;;;5044786;28;45324;-77
2022/11/11 11:25:29;;;;;;;8.05;4.63;;;16.50;57.40;;;;;;5046629;28;45293;-76
2022/11/11 11:28:05;;;;;;;9.73;4.00;;;16.50;57.30;;;;;;5047042;28;45496;-74
2022/11/11 11:30:32;;;;;;;6.75;4.22;;;16.50;57.20;;;;;;5046181;28;45268;-75
2022/11/11 11:33:01;;;;;;;5.18;3.70;;;16.60;57.30;;;;;;5044765;28;45206;-75
2022/11/11 11:35:33;;;;;;;9.05;3.78;;;16.50;57.50;;;;;;5046432;28;45348;-76
2022/11/11 11:38:00;;;;;;;13.60;4.15;;;16.50;57.50;;;;;;5047009;28;45393;-76
2022/11/11 11:40:27;;;;;;;6.18;3.63;;;16.50;57.70;;;;;;5046118;28;45427;-78
2022/11/11 11:42:55;;;;;;;9.63;3.70;;;16.50;57.90;;;;;;5044751;28;45490;-78
2022/11/11 11:45:24;;;;;;;9.93;3.75;;;16.50;58.10;;;;;;5046072;28;45147;-74
2022/11/11 11:48:17;;;;;;;8.50;3.60;;;16.50;58.20;;;;;;5046834;28;45339;-75
2022/11/11 11:50:49;;;;;;;3.08;2.78;;;16.60;58.30;;;;;;5041779;28;45408;-77
2022/11/11 11:53:34;;;;;;;9.60;4.13;;;16.60;58.40;;;;;;5046428;28;45144;-78
2022/11/11 11:56:07;;;;;;;12.32;4.07;;;16.60;58.90;;;;;;5046489;28;45298;-80
2022/11/11 11:58:40;;;;;;;7.20;3.38;;;16.80;58.70;;;;;;5040214;28;45284;-78
2022/11/11 12:01:10;;;;;;;5.85;4.30;;;16.80;58.30;;;;;;5041805;28;46422;-77
2022/11/11 12:04:18;;;;;;;7.20;4.43;;;16.80;58.10;;;;;;5032508;28;45525;-79
2022/11/11 12:06:50;;;;;;;13.93;5.35;;;16.80;58.10;;;;;;5025915;28;45314;-80
2022/11/11 12:09:23;;;;;;;14.35;8.80;;;16.80;58.30;;;;;;5028170;28;45205;-77
2022/11/11 12:11:52;;;;;;;12.48;6.00;;;16.90;58.70;;;;;;5036425;28;46382;-77
2022/11/11 12:14:43;;;;;;;12.57;5.35;;;17.00;58.30;;;;;;5046067;28;45215;-80
2022/11/11 12:17:16;;;;;;;12.52;5.70;;;17.00;58.20;;;;;;5025409;28;45255;-76
2022/11/11 12:19:49;;;;;;;10.00;5.22;;;17.00;58.00;;;;;;5027166;28;45340;-79
2022/11/11 12:22:25;;;;;;;13.93;5.70;;;17.00;58.40;;;;;;5039386;28;45436;-83
2022/11/11 12:24:56;;;;;;;10.95;6.85;;;17.00;58.20;;;;;;5047164;28;45348;-82
2022/11/11 12:27:27;;;;;;;16.38;12.70;;;17.10;58.10;;;;;;5046110;28;45202;-77
2022/11/11 12:30:01;;;;;;;15.63;10.18;;;17.10;58.30;;;;;;5046484;28;45442;-79
2022/11/11 12:32:57;;;;;;;8.10;5.90;;;17.20;58.20;;;;;;5045271;28;45301;-81
2022/11/11 12:35:38;;;;;;;10.00;6.55;;;17.20;57.80;;;;;;5046597;28;45408;-80
2022/11/11 12:38:17;;;;;;;13.88;9.85;;;17.30;58.00;;;;;;5047300;28;45352;-76
2022/11/11 12:40:49;;;;;;;14.77;6.45;;;17.30;57.90;;;;;;5045147;28;45460;-78
2022/11/11 12:43:18;;;;;;;13.50;11.93;;;17.20;57.60;;;;;;5047551;28;46667;-78
2022/11/11 12:45:47;;;;;;;16.80;9.10;;;17.30;57.80;;;;;;5049644;28;45364;-78
2022/11/11 12:48:29;;;;;;;9.27;6.13;;;17.40;57.60;;;;;;5042242;28;45296;-80
2022/11/11 12:51:03;;;;;;;11.23;6.18;;;17.40;57.40;;;;;;5031171;28;45488;-77
2022/11/11 12:53:33;;;;;;;11.25;8.32;;;17.40;57.60;;;;;;5047388;28;47094;-77
2022/11/11 12:56:04;;;;;;;10.82;7.80;;;17.40;57.30;;;;;;5049458;28;45245;-78
2022/11/11 12:58:35;;;;;;;25.13;20.73;;;17.40;57.40;;;;;;5051445;28;45202;-74
2022/11/11 13:01:11;;;;;;;12.25;10.95;;;17.40;58.10;;;;;;5048019;28;45404;-79
2022/11/11 13:03:59;;;;;;;8.85;6.00;;;17.50;57.70;;;;;;5048609;28;46369;-80
2022/11/11 13:06:39;;;;;;;8.23;5.50;;;17.60;57.20;;;;;;5048955;28;45151;-78
2022/11/11 13:09:42;;;;;;;12.43;6.82;;;17.50;57.10;;;;;;5050864;28;45266;-76
2022/11/11 13:12:12;;;;;;;13.52;10.98;;;17.60;57.50;;;;;;5032557;28;45438;-83
2022/11/11 13:14:48;;;;;;;12.65;9.85;;;17.50;57.30;;;;;;5048534;28;49070;-79
2022/11/11 13:17:16;;;;;;;17.00;15.27;;;17.50;57.40;;;;;;5049191;28;45285;-81
2022/11/11 13:19:45;;;;;;;12.90;10.60;;;17.50;57.70;;;;;;5049434;28;45214;-77
2022/11/11 13:22:18;;;;;;;7.97;6.18;;;17.60;57.60;;;;;;5049800;28;45432;-80
2022/11/11 13:24:45;;;;;;;7.75;6.53;;;17.60;57.50;;;;;;5049425;28;45250;-78
2022/11/11 13:27:14;;;;;;;11.48;9.50;;;17.60;57.70;;;;;;5050070;28;45345;-83
2022/11/11 13:30:20;;;;;;;11.95;9.38;;;17.60;57.50;;;;;;5049024;28;45274;-76
2022/11/11 13:32:48;;;;;;;28.85;23.15;;;17.60;57.50;;;;;;5048113;28;45477;-81
2022/11/11 13:35:23;;;;;;;18.95;17.00;;;17.50;58.20;;;;;;5049362;28;45809;-79
2022/11/11 13:37:52;;;;;;;9.80;7.80;;;17.60;58.10;;;;;;5049401;28;45202;-77
2022/11/11 13:40:39;;;;;;;17.02;9.60;;;17.70;57.50;;;;;;5048277;28;45325;-80
2022/11/11 13:43:07;;;;;;;14.52;7.35;;;17.70;57.70;;;;;;5048189;28;45207;-79
2022/11/11 13:45:35;;;;;;;8.20;7.30;;;17.60;57.40;;;;;;5047891;28;45538;-80
2022/11/11 13:48:02;;;;;;;9.88;7.18;;;17.60;57.30;;;;;;5048349;28;45250;-79
2022/11/11 13:50:31;;;;;;;14.52;6.60;;;17.60;57.40;;;;;;5048735;28;45301;-78
2022/11/11 13:53:02;;;;;;;11.52;6.82;;;17.50;57.70;;;;;;5046485;28;45144;-80
2022/11/11 13:55:32;;;;;;;14.35;7.38;;;17.50;58.00;;;;;;5047936;28;45420;-78
2022/11/11 13:57:58;;;;;;;7.53;6.55;;;17.40;58.10;;;;;;5048492;28;45285;-74
2022/11/11 14:00:27;;;;;;;6.82;5.90;;;17.40;57.90;;;;;;5049027;28;45266;-77
2022/11/11 14:03:27;;;;;;;9.43;6.57;;;17.50;57.90;;;;;;5046529;28;45428;-73
2022/11/11 14:06:29;;;;;;;7.07;5.43;;;17.50;58.00;;;;;;5047738;28;45520;-76
2022/11/11 14:08:57;;;;;;;11.00;6.10;;;17.50;57.90;;;;;;5047664;28;45324;-76
2022/11/11 14:11:30;;;;;;;11.45;5.50;;;17.50;58.00;;;;;;5047152;28;45290;-79
2022/11/11 14:13:57;;;;;;;9.57;5.60;;;17.50;58.70;;;;;;5048453;28;45451;-79
2022/11/11 14:17:00;;;;;;;12.55;5.57;;;17.50;58.20;;;;;;5047877;28;46772;-74